sensor_id;sensor_type;location;lat;lon;timestamp;temperature;humidity
4643;DHT22;2334;48.710;9.622;2022-10-28T00:00:07;10.70;99.90
4643;DHT22;2334;48.710;9.622;2022-10-28T00:02:34;10.60;99.90
4643;DHT22;2334;48.710;9.622;2022-10-28T00:05:02;10.50;99.90
4643;DHT22;2334;48.710;9.622;2022-10-28T00:07:29;10.60;99.90
4643;DHT22;2334;48.710;9.622;2022-10-28T00:09:57;10.50;99.90
4643;DHT22;2334;48.710;9.622;2022-10-28T00:12:24;10.60;99.90
4643;DHT22;2334;48.710;9.622;2022-10-28T00:14:51;10.50;99.90
4643;DHT22;2334;48.710;9.622;2022-10-28T00:17:18;10.60;99.90
4643;DHT22;2334;48.710;9.622;2022-10-28T00:19:45;10.50;99.90
4643;DHT22;2334;48.710;9.622;2022-10-28T00:22:11;10.50;99.90
4643;DHT22;2334;48.710;9.622;2022-10-28T00:24:38;10.60;99.90
4643;DHT22;2334;48.710;9.622;2022-10-28T00:27:06;10.60;99.90
4643;DHT22;2334;48.710;9.622;2022-10-28T00:29:33;10.50;99.90
4643;DHT22;2334;48.710;9.622;2022-10-28T00:32:00;10.60;99.90
4643;DHT22;2334;48.710;9.622;2022-10-28T00:34:27;10.60;99.90
4643;DHT22;2334;48.710;9.622;2022-10-28T00:36:54;10.60;99.90
4643;DHT22;2334;48.710;9.622;2022-10-28T00:39:22;10.60;99.90
4643;DHT22;2334;48.710;9.622;2022-10-28T00:41:51;10.60;99.90
4643;DHT22;2334;48.710;9.622;2022-10-28T00:44:48;10.60;99.90
4643;DHT22;2334;48.710;9.622;2022-10-28T00:47:28;10.60;99.90
4643;DHT22;2334;48.710;9.622;2022-10-28T00:50:12;10.50;99.90
4643;DHT22;2334;48.710;9.622;2022-10-28T00:52:41;10.50;99.90
4643;DHT22;2334;48.710;9.622;2022-10-28T00:55:10;10.50;99.90
4643;DHT22;2334;48.710;9.622;2022-10-28T00:57:40;10.50;99.90
4643;DHT22;2334;48.710;9.622;2022-10-28T01:00:10;10.50;99.90
4643;DHT22;2334;48.710;9.622;2022-10-28T01:02:47;10.40;99.90
4643;DHT22;2334;48.710;9.622;2022-10-28T01:05:18;10.40;99.90
4643;DHT22;2334;48.710;9.622;2022-10-28T01:07:46;10.40;99.90
4643;DHT22;2334;48.710;9.622;2022-10-28T01:10:14;10.40;99.90
4643;DHT22;2334;48.710;9.622;2022-10-28T01:12:54;10.40;99.90
4643;DHT22;2334;48.710;9.622;2022-10-28T01:15:31;10.40;99.90
4643;DHT22;2334;48.710;9.622;2022-10-28T01:18:03;10.30;99.90
4643;DHT22;2334;48.710;9.622;2022-10-28T01:23:34;10.30;99.90
4643;DHT22;2334;48.710;9.622;2022-10-28T01:26:28;10.30;99.90
4643;DHT22;2334;48.710;9.622;2022-10-28T01:32:06;10.10;99.90
4643;DHT22;2334;48.710;9.622;2022-10-28T01:34:42;10.10;99.90
4643;DHT22;2334;48.710;9.622;2022-10-28T01:37:16;10.10;99.90
4643;DHT22;2334;48.710;9.622;2022-10-28T01:39:48;10.10;99.90
4643;DHT22;2334;48.710;9.622;2022-10-28T01:42:23;10.10;99.90
4643;DHT22;2334;48.710;9.622;2022-10-28T01:45:00;10.10;99.90
4643;DHT22;2334;48.710;9.622;2022-10-28T01:47:33;10.10;99.90
4643;DHT22;2334;48.710;9.622;2022-10-28T01:50:05;10.10;99.90
4643;DHT22;2334;48.710;9.622;2022-10-28T01:52:36;10.10;99.90
4643;DHT22;2334;48.710;9.622;2022-10-28T01:55:09;10.10;99.90
4643;DHT22;2334;48.710;9.622;2022-10-28T01:57:38;10.10;99.90
4643;DHT22;2334;48.710;9.622;2022-10-28T02:00:06;10.10;99.90
4643;DHT22;2334;48.710;9.622;2022-10-28T02:02:36;10.10;99.90
4643;DHT22;2334;48.710;9.622;2022-10-28T02:05:05;10.10;99.90
4643;DHT22;2334;48.710;9.622;2022-10-28T02:07:32;10.10;99.90
4643;DHT22;2334;48.710;9.622;2022-10-28T02:10:03;10.10;99.90
4643;DHT22;2334;48.710;9.622;2022-10-28T02:12:36;10.10;99.90
4643;DHT22;2334;48.710;9.622;2022-10-28T02:15:19;10.10;99.90
4643;DHT22;2334;48.710;9.622;2022-10-28T02:18:11;10.10;99.90
4643;DHT22;2334;48.710;9.622;2022-10-28T02:20:47;10.10;99.90
4643;DHT22;2334;48.710;9.622;2022-10-28T02:23:21;10.00;99.90
4643;DHT22;2334;48.710;9.622;2022-10-28T02:25:53;10.00;99.90
4643;DHT22;2334;48.710;9.622;2022-10-28T02:28:24;10.00;99.90
4643;DHT22;2334;48.710;9.622;2022-10-28T02:31:00;10.00;99.90
4643;DHT22;2334;48.710;9.622;2022-10-28T02:33:35;10.00;99.90
4643;DHT22;2334;48.710;9.622;2022-10-28T02:36:04;10.00;99.90
4643;DHT22;2334;48.710;9.622;2022-10-28T02:38:35;10.00;99.90
4643;DHT22;2334;48.710;9.622;2022-10-28T02:41:07;10.00;99.90
4643;DHT22;2334;48.710;9.622;2022-10-28T02:43:37;10.00;99.90
4643;DHT22;2334;48.710;9.622;2022-10-28T02:46:07;9.90;99.90
4643;DHT22;2334;48.710;9.622;2022-10-28T02:48:38;9.90;99.90
4643;DHT22;2334;48.710;9.622;2022-10-28T02:51:08;9.80;99.90
4643;DHT22;2334;48.710;9.622;2022-10-28T02:53:44;9.80;99.90
4643;DHT22;2334;48.710;9.622;2022-10-28T02:56:15;9.70;99.90
4643;DHT22;2334;48.710;9.622;2022-10-28T02:58:44;9.70;99.90
4643;DHT22;2334;48.710;9.622;2022-10-28T03:01:11;9.70;99.90
4643;DHT22;2334;48.710;9.622;2022-10-28T03:03:39;9.80;99.90
4643;DHT22;2334;48.710;9.622;2022-10-28T03:06:07;9.80;99.90
4643;DHT22;2334;48.710;9.622;2022-10-28T03:08:34;9.80;99.90
4643;DHT22;2334;48.710;9.622;2022-10-28T03:11:01;9.80;99.90
4643;DHT22;2334;48.710;9.622;2022-10-28T03:13:28;9.70;99.90
4643;DHT22;2334;48.710;9.622;2022-10-28T03:15:54;9.70;99.90
4643;DHT22;2334;48.710;9.622;2022-10-28T03:18:21;9.70;99.90
4643;DHT22;2334;48.710;9.622;2022-10-28T03:20:50;9.70;99.90
4643;DHT22;2334;48.710;9.622;2022-10-28T03:23:16;9.70;99.90
4643;DHT22;2334;48.710;9.622;2022-10-28T03:25:43;9.70;99.90
4643;DHT22;2334;48.710;9.622;2022-10-28T03:28:10;9.70;99.90
4643;DHT22;2334;48.710;9.622;2022-10-28T03:30:37;9.70;99.90
4643;DHT22;2334;48.710;9.622;2022-10-28T03:33:04;9.70;99.90
4643;DHT22;2334;48.710;9.622;2022-10-28T03:35:30;9.70;99.90
4643;DHT22;2334;48.710;9.622;2022-10-28T03:37:59;9.70;99.90
4643;DHT22;2334;48.710;9.622;2022-10-28T03:40:25;9.60;99.90
4643;DHT22;2334;48.710;9.622;2022-10-28T03:42:52;9.60;99.90
4643;DHT22;2334;48.710;9.622;2022-10-28T03:45:19;9.60;99.90
4643;DHT22;2334;48.710;9.622;2022-10-28T03:47:46;9.60;99.90
4643;DHT22;2334;48.710;9.622;2022-10-28T03:50:13;9.70;99.90
4643;DHT22;2334;48.710;9.622;2022-10-28T03:52:42;9.60;99.90
4643;DHT22;2334;48.710;9.622;2022-10-28T03:55:11;9.70;99.90
4643;DHT22;2334;48.710;9.622;2022-10-28T03:57:37;9.70;99.90
4643;DHT22;2334;48.710;9.622;2022-10-28T04:00:05;9.70;99.90
4643;DHT22;2334;48.710;9.622;2022-10-28T04:02:32;9.70;99.90
4643;DHT22;2334;48.710;9.622;2022-10-28T04:04:59;9.70;99.90
4643;DHT22;2334;48.710;9.622;2022-10-28T04:07:26;9.70;99.90
4643;DHT22;2334;48.710;9.622;2022-10-28T04:09:53;9.60;99.90
4643;DHT22;2334;48.710;9.622;2022-10-28T04:12:21;9.60;99.90
4643;DHT22;2334;48.710;9.622;2022-10-28T04:14:48;9.60;99.90
4643;DHT22;2334;48.710;9.622;2022-10-28T04:17:15;9.60;99.90
4643;DHT22;2334;48.710;9.622;2022-10-28T04:19:42;9.60;99.90
4643;DHT22;2334;48.710;9.622;2022-10-28T04:22:08;9.60;99.90
4643;DHT22;2334;48.710;9.622;2022-10-28T04:24:35;9.60;99.90
4643;DHT22;2334;48.710;9.622;2022-10-28T04:27:02;9.60;99.90
4643;DHT22;2334;48.710;9.622;2022-10-28T04:29:31;9.60;99.90
4643;DHT22;2334;48.710;9.622;2022-10-28T04:31:58;9.70;99.90
4643;DHT22;2334;48.710;9.622;2022-10-28T04:34:25;9.70;99.90
4643;DHT22;2334;48.710;9.622;2022-10-28T04:36:52;9.70;99.90
4643;DHT22;2334;48.710;9.622;2022-10-28T04:39:19;9.70;99.90
4643;DHT22;2334;48.710;9.622;2022-10-28T04:41:46;9.80;99.90
4643;DHT22;2334;48.710;9.622;2022-10-28T04:44:12;9.80;99.90
4643;DHT22;2334;48.710;9.622;2022-10-28T04:46:41;9.80;99.90
4643;DHT22;2334;48.710;9.622;2022-10-28T04:49:07;9.80;99.90
4643;DHT22;2334;48.710;9.622;2022-10-28T04:51:35;9.80;99.90
4643;DHT22;2334;48.710;9.622;2022-10-28T04:54:01;9.80;99.90
4643;DHT22;2334;48.710;9.622;2022-10-28T04:56:28;9.80;99.90
4643;DHT22;2334;48.710;9.622;2022-10-28T04:58:57;9.80;99.90
4643;DHT22;2334;48.710;9.622;2022-10-28T05:01:24;9.90;99.90
4643;DHT22;2334;48.710;9.622;2022-10-28T05:03:53;9.90;99.90
4643;DHT22;2334;48.710;9.622;2022-10-28T05:06:19;9.90;99.90
4643;DHT22;2334;48.710;9.622;2022-10-28T05:08:46;10.00;99.90
4643;DHT22;2334;48.710;9.622;2022-10-28T05:11:13;10.00;99.90
4643;DHT22;2334;48.710;9.622;2022-10-28T05:13:40;10.00;99.90
4643;DHT22;2334;48.710;9.622;2022-10-28T05:16:07;10.00;99.90
4643;DHT22;2334;48.710;9.622;2022-10-28T05:18:34;10.00;99.90
4643;DHT22;2334;48.710;9.622;2022-10-28T05:21:03;10.00;99.90
4643;DHT22;2334;48.710;9.622;2022-10-28T05:23:30;10.00;99.90
4643;DHT22;2334;48.710;9.622;2022-10-28T05:25:57;10.00;99.90
4643;DHT22;2334;48.710;9.622;2022-10-28T05:28:24;10.10;99.90
4643;DHT22;2334;48.710;9.622;2022-10-28T05:30:51;10.10;99.90
4643;DHT22;2334;48.710;9.622;2022-10-28T05:33:18;10.10;99.90
4643;DHT22;2334;48.710;9.622;2022-10-28T05:35:45;10.10;99.90
4643;DHT22;2334;48.710;9.622;2022-10-28T05:38:13;10.20;99.90
4643;DHT22;2334;48.710;9.622;2022-10-28T05:40:40;10.20;99.90
4643;DHT22;2334;48.710;9.622;2022-10-28T05:43:08;10.20;99.90
4643;DHT22;2334;48.710;9.622;2022-10-28T05:45:38;10.20;99.90
4643;DHT22;2334;48.710;9.622;2022-10-28T05:48:05;10.30;99.90
4643;DHT22;2334;48.710;9.622;2022-10-28T05:50:32;10.30;99.90
4643;DHT22;2334;48.710;9.622;2022-10-28T05:53:00;10.30;99.90
4643;DHT22;2334;48.710;9.622;2022-10-28T05:55:28;10.40;99.90
4643;DHT22;2334;48.710;9.622;2022-10-28T05:57:56;10.40;99.90
4643;DHT22;2334;48.710;9.622;2022-10-28T06:00:25;10.40;99.90
4643;DHT22;2334;48.710;9.622;2022-10-28T06:02:52;10.40;99.90
4643;DHT22;2334;48.710;9.622;2022-10-28T06:05:27;10.50;99.90
4643;DHT22;2334;48.710;9.622;2022-10-28T06:07:54;10.50;99.90
4643;DHT22;2334;48.710;9.622;2022-10-28T06:10:21;10.50;99.90
4643;DHT22;2334;48.710;9.622;2022-10-28T06:12:49;10.60;99.90
4643;DHT22;2334;48.710;9.622;2022-10-28T06:15:16;10.60;99.90
4643;DHT22;2334;48.710;9.622;2022-10-28T06:17:46;10.60;99.90
4643;DHT22;2334;48.710;9.622;2022-10-28T06:20:13;10.60;99.90
4643;DHT22;2334;48.710;9.622;2022-10-28T06:22:46;10.70;99.90
4643;DHT22;2334;48.710;9.622;2022-10-28T06:25:13;10.70;99.90
4643;DHT22;2334;48.710;9.622;2022-10-28T06:27:40;10.60;99.90
4643;DHT22;2334;48.710;9.622;2022-10-28T06:30:10;10.60;99.90
4643;DHT22;2334;48.710;9.622;2022-10-28T06:32:37;10.70;99.90
4643;DHT22;2334;48.710;9.622;2022-10-28T06:35:04;10.70;99.90
4643;DHT22;2334;48.710;9.622;2022-10-28T06:37:31;10.80;99.90
4643;DHT22;2334;48.710;9.622;2022-10-28T06:39:58;10.70;99.90
4643;DHT22;2334;48.710;9.622;2022-10-28T06:42:25;10.70;99.90
4643;DHT22;2334;48.710;9.622;2022-10-28T06:44:52;10.80;99.90
4643;DHT22;2334;48.710;9.622;2022-10-28T06:47:20;10.80;99.90
4643;DHT22;2334;48.710;9.622;2022-10-28T06:49:47;10.80;99.90
4643;DHT22;2334;48.710;9.622;2022-10-28T06:52:14;10.80;99.90
4643;DHT22;2334;48.710;9.622;2022-10-28T06:54:41;10.90;99.90
4643;DHT22;2334;48.710;9.622;2022-10-28T06:57:08;10.90;99.90
4643;DHT22;2334;48.710;9.622;2022-10-28T06:59:35;10.90;99.90
4643;DHT22;2334;48.710;9.622;2022-10-28T07:02:03;10.90;99.90
4643;DHT22;2334;48.710;9.622;2022-10-28T07:04:32;10.90;99.90
4643;DHT22;2334;48.710;9.622;2022-10-28T07:06:59;10.90;99.90
4643;DHT22;2334;48.710;9.622;2022-10-28T07:09:26;10.90;99.90
4643;DHT22;2334;48.710;9.622;2022-10-28T07:11:53;10.90;99.90
4643;DHT22;2334;48.710;9.622;2022-10-28T07:14:19;11.00;99.90
4643;DHT22;2334;48.710;9.622;2022-10-28T07:16:46;11.00;99.90
4643;DHT22;2334;48.710;9.622;2022-10-28T07:19:13;11.00;99.90
4643;DHT22;2334;48.710;9.622;2022-10-28T07:21:42;11.20;99.90
4643;DHT22;2334;48.710;9.622;2022-10-28T07:24:09;11.20;99.90
4643;DHT22;2334;48.710;9.622;2022-10-28T07:26:35;11.20;99.90
4643;DHT22;2334;48.710;9.622;2022-10-28T07:29:02;11.30;99.90
4643;DHT22;2334;48.710;9.622;2022-10-28T07:31:29;11.40;99.90
4643;DHT22;2334;48.710;9.622;2022-10-28T07:33:56;11.50;99.90
4643;DHT22;2334;48.710;9.622;2022-10-28T07:36:23;11.60;99.90
4643;DHT22;2334;48.710;9.622;2022-10-28T07:38:51;11.70;99.90
4643;DHT22;2334;48.710;9.622;2022-10-28T07:41:20;11.70;99.90
4643;DHT22;2334;48.710;9.622;2022-10-28T07:43:47;11.70;99.90
4643;DHT22;2334;48.710;9.622;2022-10-28T07:46:15;11.80;99.90
4643;DHT22;2334;48.710;9.622;2022-10-28T07:48:43;11.80;99.90
4643;DHT22;2334;48.710;9.622;2022-10-28T07:51:12;11.90;99.90
4643;DHT22;2334;48.710;9.622;2022-10-28T07:53:39;11.90;99.90
4643;DHT22;2334;48.710;9.622;2022-10-28T07:56:10;12.00;99.90
4643;DHT22;2334;48.710;9.622;2022-10-28T07:58:38;12.00;99.90
4643;DHT22;2334;48.710;9.622;2022-10-28T08:01:08;12.10;99.90
4643;DHT22;2334;48.710;9.622;2022-10-28T08:03:36;12.20;99.90
4643;DHT22;2334;48.710;9.622;2022-10-28T08:06:05;12.30;99.90
4643;DHT22;2334;48.710;9.622;2022-10-28T08:08:32;12.40;99.90
4643;DHT22;2334;48.710;9.622;2022-10-28T08:11:09;12.50;99.90
4643;DHT22;2334;48.710;9.622;2022-10-28T08:13:36;12.60;99.90
4643;DHT22;2334;48.710;9.622;2022-10-28T08:16:03;12.60;99.90
4643;DHT22;2334;48.710;9.622;2022-10-28T08:18:30;12.70;99.90
4643;DHT22;2334;48.710;9.622;2022-10-28T08:20:58;12.70;99.90
4643;DHT22;2334;48.710;9.622;2022-10-28T08:23:25;12.80;99.90
4643;DHT22;2334;48.710;9.622;2022-10-28T08:25:52;12.90;99.90
4643;DHT22;2334;48.710;9.622;2022-10-28T08:28:20;12.90;99.90
4643;DHT22;2334;48.710;9.622;2022-10-28T08:30:47;13.00;99.90
4643;DHT22;2334;48.710;9.622;2022-10-28T08:33:15;13.00;99.90
4643;DHT22;2334;48.710;9.622;2022-10-28T08:35:42;13.10;99.90
4643;DHT22;2334;48.710;9.622;2022-10-28T08:38:09;13.10;99.90
4643;DHT22;2334;48.710;9.622;2022-10-28T08:40:41;13.20;99.90
4643;DHT22;2334;48.710;9.622;2022-10-28T08:43:17;13.20;99.90
4643;DHT22;2334;48.710;9.622;2022-10-28T08:45:53;13.30;99.90
4643;DHT22;2334;48.710;9.622;2022-10-28T08:48:28;13.40;99.90
4643;DHT22;2334;48.710;9.622;2022-10-28T08:51:00;13.40;99.90
4643;DHT22;2334;48.710;9.622;2022-10-28T08:53:33;13.50;99.90
4643;DHT22;2334;48.710;9.622;2022-10-28T08:56:06;13.60;99.90
4643;DHT22;2334;48.710;9.622;2022-10-28T08:58:39;13.60;99.90
4643;DHT22;2334;48.710;9.622;2022-10-28T09:01:15;13.70;99.90
4643;DHT22;2334;48.710;9.622;2022-10-28T09:03:46;13.70;99.90
4643;DHT22;2334;48.710;9.622;2022-10-28T09:06:15;13.80;99.90
4643;DHT22;2334;48.710;9.622;2022-10-28T09:08:43;13.90;99.90
4643;DHT22;2334;48.710;9.622;2022-10-28T09:11:37;13.90;99.90
4643;DHT22;2334;48.710;9.622;2022-10-28T09:14:23;14.00;99.90
4643;DHT22;2334;48.710;9.622;2022-10-28T09:16:58;14.00;99.90
4643;DHT22;2334;48.710;9.622;2022-10-28T09:19:36;14.10;99.90
4643;DHT22;2334;48.710;9.622;2022-10-28T09:22:19;14.10;99.90
4643;DHT22;2334;48.710;9.622;2022-10-28T09:24:53;14.20;99.90
4643;DHT22;2334;48.710;9.622;2022-10-28T09:27:36;14.40;99.90
4643;DHT22;2334;48.710;9.622;2022-10-28T09:30:21;14.50;99.90
4643;DHT22;2334;48.710;9.622;2022-10-28T09:32:58;14.60;99.90
4643;DHT22;2334;48.710;9.622;2022-10-28T09:35:30;14.70;99.90
4643;DHT22;2334;48.710;9.622;2022-10-28T09:38:05;14.80;99.90
4643;DHT22;2334;48.710;9.622;2022-10-28T09:40:34;14.90;99.90
4643;DHT22;2334;48.710;9.622;2022-10-28T09:43:07;15.00;99.90
4643;DHT22;2334;48.710;9.622;2022-10-28T09:45:39;15.10;99.90
4643;DHT22;2334;48.710;9.622;2022-10-28T09:48:17;15.10;99.90
4643;DHT22;2334;48.710;9.622;2022-10-28T09:50:48;15.20;99.90
4643;DHT22;2334;48.710;9.622;2022-10-28T09:53:23;15.20;99.90
4643;DHT22;2334;48.710;9.622;2022-10-28T09:55:54;15.30;99.90
4643;DHT22;2334;48.710;9.622;2022-10-28T09:58:21;15.40;99.90
4643;DHT22;2334;48.710;9.622;2022-10-28T10:00:49;15.50;99.90
4643;DHT22;2334;48.710;9.622;2022-10-28T10:03:17;15.50;99.90
4643;DHT22;2334;48.710;9.622;2022-10-28T10:05:47;15.60;99.90
4643;DHT22;2334;48.710;9.622;2022-10-28T10:08:17;15.70;99.90
4643;DHT22;2334;48.710;9.622;2022-10-28T10:10:49;15.80;99.90
4643;DHT22;2334;48.710;9.622;2022-10-28T10:13:19;16.00;99.90
4643;DHT22;2334;48.710;9.622;2022-10-28T10:15:51;16.10;99.90
4643;DHT22;2334;48.710;9.622;2022-10-28T10:18:22;16.30;99.90
4643;DHT22;2334;48.710;9.622;2022-10-28T10:20:51;16.50;99.90
4643;DHT22;2334;48.710;9.622;2022-10-28T10:23:28;16.70;99.90
4643;DHT22;2334;48.710;9.622;2022-10-28T10:25:57;16.80;99.90
4643;DHT22;2334;48.710;9.622;2022-10-28T10:28:25;17.00;99.90
4643;DHT22;2334;48.710;9.622;2022-10-28T10:30:54;17.20;99.90
4643;DHT22;2334;48.710;9.622;2022-10-28T10:33:24;17.50;99.90
4643;DHT22;2334;48.710;9.622;2022-10-28T10:35:53;17.60;99.90
4643;DHT22;2334;48.710;9.622;2022-10-28T10:38:22;17.70;99.90
4643;DHT22;2334;48.710;9.622;2022-10-28T10:40:50;18.00;99.90
4643;DHT22;2334;48.710;9.622;2022-10-28T10:43:23;18.20;99.90
4643;DHT22;2334;48.710;9.622;2022-10-28T10:45:52;18.20;99.90
4643;DHT22;2334;48.710;9.622;2022-10-28T10:48:26;18.30;99.90
4643;DHT22;2334;48.710;9.622;2022-10-28T10:50:53;18.40;99.90
4643;DHT22;2334;48.710;9.622;2022-10-28T10:53:23;18.50;99.90
4643;DHT22;2334;48.710;9.622;2022-10-28T10:55:56;18.60;99.90
4643;DHT22;2334;48.710;9.622;2022-10-28T10:58:29;18.70;99.90
4643;DHT22;2334;48.710;9.622;2022-10-28T11:00:58;18.80;99.90
4643;DHT22;2334;48.710;9.622;2022-10-28T11:03:30;18.70;99.90
4643;DHT22;2334;48.710;9.622;2022-10-28T11:06:00;18.70;99.90
4643;DHT22;2334;48.710;9.622;2022-10-28T11:08:34;18.70;99.90
4643;DHT22;2334;48.710;9.622;2022-10-28T11:11:04;18.70;99.90
4643;DHT22;2334;48.710;9.622;2022-10-28T11:13:33;18.70;99.90
4643;DHT22;2334;48.710;9.622;2022-10-28T11:16:01;18.60;99.90
4643;DHT22;2334;48.710;9.622;2022-10-28T11:18:39;18.70;99.90
4643;DHT22;2334;48.710;9.622;2022-10-28T11:21:12;18.70;99.90
4643;DHT22;2334;48.710;9.622;2022-10-28T11:23:50;18.80;99.90
4643;DHT22;2334;48.710;9.622;2022-10-28T11:26:21;19.00;99.90
4643;DHT22;2334;48.710;9.622;2022-10-28T11:29:08;19.10;99.90
4643;DHT22;2334;48.710;9.622;2022-10-28T11:34:44;19.40;99.90
4643;DHT22;2334;48.710;9.622;2022-10-28T11:37:16;19.50;99.90
4643;DHT22;2334;48.710;9.622;2022-10-28T11:39:57;19.50;99.90
4643;DHT22;2334;48.710;9.622;2022-10-28T11:42:35;19.50;99.90
4643;DHT22;2334;48.710;9.622;2022-10-28T11:45:12;19.60;99.90
4643;DHT22;2334;48.710;9.622;2022-10-28T11:47:57;19.70;99.90
4643;DHT22;2334;48.710;9.622;2022-10-28T11:50:40;19.80;99.90
4643;DHT22;2334;48.710;9.622;2022-10-28T11:53:24;20.00;99.90
4643;DHT22;2334;48.710;9.622;2022-10-28T11:56:01;20.30;99.90
4643;DHT22;2334;48.710;9.622;2022-10-28T11:58:36;20.60;99.90
4643;DHT22;2334;48.710;9.622;2022-10-28T12:01:14;20.60;99.90
4643;DHT22;2334;48.710;9.622;2022-10-28T12:04:06;20.50;99.90
4643;DHT22;2334;48.710;9.622;2022-10-28T12:06:52;20.40;99.90
4643;DHT22;2334;48.710;9.622;2022-10-28T12:09:28;20.30;99.90
4643;DHT22;2334;48.710;9.622;2022-10-28T12:12:08;20.20;99.90
4643;DHT22;2334;48.710;9.622;2022-10-28T12:14:47;20.10;99.90
4643;DHT22;2334;48.710;9.622;2022-10-28T12:17:18;20.00;99.90
4643;DHT22;2334;48.710;9.622;2022-10-28T12:19:55;19.90;99.90
4643;DHT22;2334;48.710;9.622;2022-10-28T12:22:28;19.90;99.90
4643;DHT22;2334;48.710;9.622;2022-10-28T12:25:02;20.00;99.90
4643;DHT22;2334;48.710;9.622;2022-10-28T12:27:36;20.00;99.90
4643;DHT22;2334;48.710;9.622;2022-10-28T12:30:14;20.00;99.90
4643;DHT22;2334;48.710;9.622;2022-10-28T12:32:47;20.00;99.90
4643;DHT22;2334;48.710;9.622;2022-10-28T12:35:18;20.10;99.90
4643;DHT22;2334;48.710;9.622;2022-10-28T12:37:51;20.10;99.90
4643;DHT22;2334;48.710;9.622;2022-10-28T12:40:20;20.10;99.90
4643;DHT22;2334;48.710;9.622;2022-10-28T12:42:52;20.10;99.90
4643;DHT22;2334;48.710;9.622;2022-10-28T12:45:20;20.10;99.90
4643;DHT22;2334;48.710;9.622;2022-10-28T12:47:52;20.10;99.90
4643;DHT22;2334;48.710;9.622;2022-10-28T12:50:26;20.00;99.90
4643;DHT22;2334;48.710;9.622;2022-10-28T12:53:01;20.00;99.90
4643;DHT22;2334;48.710;9.622;2022-10-28T12:55:35;20.00;99.90
4643;DHT22;2334;48.710;9.622;2022-10-28T12:58:14;19.90;99.90
4643;DHT22;2334;48.710;9.622;2022-10-28T13:00:44;19.90;99.90
4643;DHT22;2334;48.710;9.622;2022-10-28T13:03:14;20.00;99.90
4643;DHT22;2334;48.710;9.622;2022-10-28T13:05:43;20.10;99.90
4643;DHT22;2334;48.710;9.622;2022-10-28T13:08:50;20.10;99.90
4643;DHT22;2334;48.710;9.622;2022-10-28T13:17:37;20.50;99.90
4643;DHT22;2334;48.710;9.622;2022-10-28T13:20:21;20.60;99.90
4643;DHT22;2334;48.710;9.622;2022-10-28T13:23:04;20.80;99.90
4643;DHT22;2334;48.710;9.622;2022-10-28T13:25:55;21.00;99.90
4643;DHT22;2334;48.710;9.622;2022-10-28T13:28:28;21.10;99.90
4643;DHT22;2334;48.710;9.622;2022-10-28T13:30:57;21.30;99.90
4643;DHT22;2334;48.710;9.622;2022-10-28T13:33:26;21.40;99.90
4643;DHT22;2334;48.710;9.622;2022-10-28T13:35:54;21.60;99.90
4643;DHT22;2334;48.710;9.622;2022-10-28T13:38:33;21.80;99.90
4643;DHT22;2334;48.710;9.622;2022-10-28T13:41:32;21.90;99.90
4643;DHT22;2334;48.710;9.622;2022-10-28T13:44:27;22.00;99.90
4643;DHT22;2334;48.710;9.622;2022-10-28T13:52:43;22.20;99.90
4643;DHT22;2334;48.710;9.622;2022-10-28T13:55:22;22.30;99.90
4643;DHT22;2334;48.710;9.622;2022-10-28T13:57:56;22.30;99.90
4643;DHT22;2334;48.710;9.622;2022-10-28T14:00:36;22.30;99.90
4643;DHT22;2334;48.710;9.622;2022-10-28T14:03:04;22.20;99.90
4643;DHT22;2334;48.710;9.622;2022-10-28T14:05:52;22.30;99.90
4643;DHT22;2334;48.710;9.622;2022-10-28T14:08:23;22.30;99.90
4643;DHT22;2334;48.710;9.622;2022-10-28T14:11:03;22.30;99.90
4643;DHT22;2334;48.710;9.622;2022-10-28T14:13:34;22.10;99.90
4643;DHT22;2334;48.710;9.622;2022-10-28T14:16:22;21.90;99.90
4643;DHT22;2334;48.710;9.622;2022-10-28T14:18:56;21.70;99.90
4643;DHT22;2334;48.710;9.622;2022-10-28T14:21:38;21.40;99.90
4643;DHT22;2334;48.710;9.622;2022-10-28T14:24:11;21.20;99.90
4643;DHT22;2334;48.710;9.622;2022-10-28T14:30:20;20.70;99.90
4643;DHT22;2334;48.710;9.622;2022-10-28T14:35:39;20.40;99.90
4643;DHT22;2334;48.710;9.622;2022-10-28T14:38:34;20.30;99.90
4643;DHT22;2334;48.710;9.622;2022-10-28T14:41:27;20.30;99.90
4643;DHT22;2334;48.710;9.622;2022-10-28T14:44:08;20.30;99.90
4643;DHT22;2334;48.710;9.622;2022-10-28T14:46:52;20.40;99.90
4643;DHT22;2334;48.710;9.622;2022-10-28T14:49:24;20.40;99.90
4643;DHT22;2334;48.710;9.622;2022-10-28T14:51:53;20.60;99.90
4643;DHT22;2334;48.710;9.622;2022-10-28T14:54:28;20.60;99.90
4643;DHT22;2334;48.710;9.622;2022-10-28T14:56:55;20.50;99.90
4643;DHT22;2334;48.710;9.622;2022-10-28T14:59:25;20.40;99.90
4643;DHT22;2334;48.710;9.622;2022-10-28T15:02:13;20.40;99.90
4643;DHT22;2334;48.710;9.622;2022-10-28T15:04:41;20.30;99.90
4643;DHT22;2334;48.710;9.622;2022-10-28T15:07:12;20.30;99.90
4643;DHT22;2334;48.710;9.622;2022-10-28T15:09:40;20.30;99.90
4643;DHT22;2334;48.710;9.622;2022-10-28T15:12:11;20.40;99.90
4643;DHT22;2334;48.710;9.622;2022-10-28T15:14:41;20.40;99.90
4643;DHT22;2334;48.710;9.622;2022-10-28T15:17:14;20.40;99.90
4643;DHT22;2334;48.710;9.622;2022-10-28T15:19:42;20.40;99.90
4643;DHT22;2334;48.710;9.622;2022-10-28T15:22:13;20.40;99.90
4643;DHT22;2334;48.710;9.622;2022-10-28T15:24:41;20.30;99.90
4643;DHT22;2334;48.710;9.622;2022-10-28T15:27:11;20.20;99.90
4643;DHT22;2334;48.710;9.622;2022-10-28T15:29:41;20.10;99.90
4643;DHT22;2334;48.710;9.622;2022-10-28T15:32:22;20.00;99.90
4643;DHT22;2334;48.710;9.622;2022-10-28T15:34:50;20.00;99.90
4643;DHT22;2334;48.710;9.622;2022-10-28T15:37:18;19.90;99.90
4643;DHT22;2334;48.710;9.622;2022-10-28T15:39:46;19.80;99.90
4643;DHT22;2334;48.710;9.622;2022-10-28T15:42:38;19.60;99.90
4643;DHT22;2334;48.710;9.622;2022-10-28T15:45:16;19.40;99.90
4643;DHT22;2334;48.710;9.622;2022-10-28T15:47:45;19.30;99.90
4643;DHT22;2334;48.710;9.622;2022-10-28T15:50:29;19.20;99.90
4643;DHT22;2334;48.710;9.622;2022-10-28T15:53:31;19.10;99.90
4643;DHT22;2334;48.710;9.622;2022-10-28T15:56:17;19.00;99.90
4643;DHT22;2334;48.710;9.622;2022-10-28T15:58:45;18.90;99.90
4643;DHT22;2334;48.710;9.622;2022-10-28T16:01:30;18.70;99.90
4643;DHT22;2334;48.710;9.622;2022-10-28T16:04:04;18.60;99.90
4643;DHT22;2334;48.710;9.622;2022-10-28T16:06:32;18.60;99.90
4643;DHT22;2334;48.710;9.622;2022-10-28T16:09:04;18.50;99.90
4643;DHT22;2334;48.710;9.622;2022-10-28T16:11:33;18.40;99.90
4643;DHT22;2334;48.710;9.622;2022-10-28T16:14:13;18.20;99.90
4643;DHT22;2334;48.710;9.622;2022-10-28T16:16:45;18.20;99.90
4643;DHT22;2334;48.710;9.622;2022-10-28T16:19:24;18.10;99.90
4643;DHT22;2334;48.710;9.622;2022-10-28T16:21:52;18.00;99.90
4643;DHT22;2334;48.710;9.622;2022-10-28T16:24:19;18.00;99.90
4643;DHT22;2334;48.710;9.622;2022-10-28T16:26:46;17.90;99.90
4643;DHT22;2334;48.710;9.622;2022-10-28T16:29:13;17.80;99.90
4643;DHT22;2334;48.710;9.622;2022-10-28T16:31:40;17.70;99.90
4643;DHT22;2334;48.710;9.622;2022-10-28T16:34:09;17.60;99.90
4643;DHT22;2334;48.710;9.622;2022-10-28T16:36:40;17.60;99.90
4643;DHT22;2334;48.710;9.622;2022-10-28T16:39:10;17.50;99.90
4643;DHT22;2334;48.710;9.622;2022-10-28T16:41:37;17.40;99.90
4643;DHT22;2334;48.710;9.622;2022-10-28T16:44:11;17.40;99.90
4643;DHT22;2334;48.710;9.622;2022-10-28T16:46:40;17.40;99.90
4643;DHT22;2334;48.710;9.622;2022-10-28T16:49:07;17.40;99.90
4643;DHT22;2334;48.710;9.622;2022-10-28T16:51:34;17.30;99.90
4643;DHT22;2334;48.710;9.622;2022-10-28T16:54:03;17.20;99.90
4643;DHT22;2334;48.710;9.622;2022-10-28T16:56:29;17.10;99.90
4643;DHT22;2334;48.710;9.622;2022-10-28T16:59:00;17.10;99.90